sensor_id;sensor_type;location;lat;lon;timestamp;P1;durP1;ratioP1;P2;durP2;ratioP2
16354;SDS011;8287;51.644;8.494;2023-02-28T00:00:48;3.20;;;2.30;;
16354;SDS011;8287;51.644;8.494;2023-02-28T00:03:15;3.03;;;2.38;;
16354;SDS011;8287;51.644;8.494;2023-02-28T00:05:42;3.92;;;2.45;;
16354;SDS011;8287;51.644;8.494;2023-02-28T00:08:08;2.70;;;2.25;;
16354;SDS011;8287;51.644;8.494;2023-02-28T00:10:35;2.28;;;1.98;;
16354;SDS011;8287;51.644;8.494;2023-02-28T00:13:03;5.05;;;2.35;;
16354;SDS011;8287;51.644;8.494;2023-02-28T00:15:32;3.13;;;2.38;;
16354;SDS011;8287;51.644;8.494;2023-02-28T00:18:00;5.50;;;2.92;;
16354;SDS011;8287;51.644;8.494;2023-02-28T00:20:26;3.95;;;2.10;;
16354;SDS011;8287;51.644;8.494;2023-02-28T00:22:53;3.75;;;2.88;;
16354;SDS011;8287;51.644;8.494;2023-02-28T00:25:22;4.55;;;2.55;;
16354;SDS011;8287;51.644;8.494;2023-02-28T00:27:50;5.53;;;2.92;;
16354;SDS011;8287;51.644;8.494;2023-02-28T00:30:17;3.33;;;2.45;;
16354;SDS011;8287;51.644;8.494;2023-02-28T00:32:46;3.35;;;2.65;;
16354;SDS011;8287;51.644;8.494;2023-02-28T00:35:13;3.80;;;2.22;;
16354;SDS011;8287;51.644;8.494;2023-02-28T00:37:40;2.22;;;1.83;;
16354;SDS011;8287;51.644;8.494;2023-02-28T00:40:08;3.53;;;2.53;;
16354;SDS011;8287;51.644;8.494;2023-02-28T00:42:36;3.50;;;2.42;;
16354;SDS011;8287;51.644;8.494;2023-02-28T00:45:03;2.63;;;2.20;;
16354;SDS011;8287;51.644;8.494;2023-02-28T00:47:31;3.08;;;2.42;;
16354;SDS011;8287;51.644;8.494;2023-02-28T00:49:59;3.13;;;2.22;;
16354;SDS011;8287;51.644;8.494;2023-02-28T00:52:26;4.30;;;2.45;;
16354;SDS011;8287;51.644;8.494;2023-02-28T00:54:53;2.20;;;1.85;;
16354;SDS011;8287;51.644;8.494;2023-02-28T00:57:19;3.58;;;2.10;;
16354;SDS011;8287;51.644;8.494;2023-02-28T00:59:46;3.72;;;2.40;;
16354;SDS011;8287;51.644;8.494;2023-02-28T01:02:13;5.03;;;2.47;;
16354;SDS011;8287;51.644;8.494;2023-02-28T01:04:40;2.60;;;2.03;;
16354;SDS011;8287;51.644;8.494;2023-02-28T01:07:08;1.80;;;1.70;;
16354;SDS011;8287;51.644;8.494;2023-02-28T01:09:34;3.80;;;2.30;;
16354;SDS011;8287;51.644;8.494;2023-02-28T01:12:01;1.55;;;1.45;;
16354;SDS011;8287;51.644;8.494;2023-02-28T01:14:28;4.55;;;2.22;;
16354;SDS011;8287;51.644;8.494;2023-02-28T01:16:54;2.55;;;1.77;;
16354;SDS011;8287;51.644;8.494;2023-02-28T01:19:21;5.03;;;2.10;;
16354;SDS011;8287;51.644;8.494;2023-02-28T01:21:48;2.78;;;2.30;;
16354;SDS011;8287;51.644;8.494;2023-02-28T01:24:16;4.60;;;2.20;;
16354;SDS011;8287;51.644;8.494;2023-02-28T01:26:42;3.40;;;2.00;;
16354;SDS011;8287;51.644;8.494;2023-02-28T01:29:09;3.67;;;2.53;;
16354;SDS011;8287;51.644;8.494;2023-02-28T01:31:36;5.55;;;3.17;;
16354;SDS011;8287;51.644;8.494;2023-02-28T01:34:02;4.25;;;2.83;;
16354;SDS011;8287;51.644;8.494;2023-02-28T01:36:29;3.90;;;2.70;;
16354;SDS011;8287;51.644;8.494;2023-02-28T01:38:56;4.70;;;2.50;;
16354;SDS011;8287;51.644;8.494;2023-02-28T01:41:25;3.28;;;2.42;;
16354;SDS011;8287;51.644;8.494;2023-02-28T01:43:54;3.50;;;2.50;;
16354;SDS011;8287;51.644;8.494;2023-02-28T01:46:23;3.25;;;2.50;;
16354;SDS011;8287;51.644;8.494;2023-02-28T01:48:50;3.28;;;2.25;;
16354;SDS011;8287;51.644;8.494;2023-02-28T01:51:22;3.95;;;2.88;;
16354;SDS011;8287;51.644;8.494;2023-02-28T01:53:55;3.47;;;2.50;;
16354;SDS011;8287;51.644;8.494;2023-02-28T01:56:27;4.00;;;2.72;;
16354;SDS011;8287;51.644;8.494;2023-02-28T01:58:56;4.00;;;3.03;;
16354;SDS011;8287;51.644;8.494;2023-02-28T02:01:24;5.82;;;3.10;;
16354;SDS011;8287;51.644;8.494;2023-02-28T02:03:54;9.95;;;4.10;;
16354;SDS011;8287;51.644;8.494;2023-02-28T02:06:22;5.93;;;3.88;;
16354;SDS011;8287;51.644;8.494;2023-02-28T02:08:50;10.20;;;3.10;;
16354;SDS011;8287;51.644;8.494;2023-02-28T02:11:18;6.25;;;3.20;;
16354;SDS011;8287;51.644;8.494;2023-02-28T02:14:01;3.55;;;2.55;;
16354;SDS011;8287;51.644;8.494;2023-02-28T02:16:48;4.00;;;2.58;;
16354;SDS011;8287;51.644;8.494;2023-02-28T02:22:36;4.28;;;2.60;;
16354;SDS011;8287;51.644;8.494;2023-02-28T02:25:22;7.65;;;2.88;;
16354;SDS011;8287;51.644;8.494;2023-02-28T02:30:55;11.88;;;3.10;;
16354;SDS011;8287;51.644;8.494;2023-02-28T02:33:48;5.93;;;3.03;;
16354;SDS011;8287;51.644;8.494;2023-02-28T02:36:45;6.35;;;3.22;;
16354;SDS011;8287;51.644;8.494;2023-02-28T02:39:18;4.05;;;2.67;;
16354;SDS011;8287;51.644;8.494;2023-02-28T02:41:54;3.28;;;2.67;;
16354;SDS011;8287;51.644;8.494;2023-02-28T02:44:26;2.85;;;2.30;;
16354;SDS011;8287;51.644;8.494;2023-02-28T02:46:58;5.03;;;2.90;;
16354;SDS011;8287;51.644;8.494;2023-02-28T02:49:31;2.38;;;1.85;;
16354;SDS011;8287;51.644;8.494;2023-02-28T02:52:00;4.07;;;2.25;;
16354;SDS011;8287;51.644;8.494;2023-02-28T02:54:30;2.13;;;1.88;;
16354;SDS011;8287;51.644;8.494;2023-02-28T02:57:00;3.05;;;1.85;;
16354;SDS011;8287;51.644;8.494;2023-02-28T02:59:30;2.65;;;2.25;;
16354;SDS011;8287;51.644;8.494;2023-02-28T03:02:01;5.15;;;2.40;;
16354;SDS011;8287;51.644;8.494;2023-02-28T03:04:32;4.10;;;2.80;;
16354;SDS011;8287;51.644;8.494;2023-02-28T03:07:02;3.80;;;2.60;;
16354;SDS011;8287;51.644;8.494;2023-02-28T03:09:29;3.45;;;2.45;;
16354;SDS011;8287;51.644;8.494;2023-02-28T03:12:00;3.65;;;2.45;;
16354;SDS011;8287;51.644;8.494;2023-02-28T03:14:31;4.13;;;2.55;;
16354;SDS011;8287;51.644;8.494;2023-02-28T03:17:18;2.63;;;2.42;;
16354;SDS011;8287;51.644;8.494;2023-02-28T03:20:02;3.97;;;2.38;;
16354;SDS011;8287;51.644;8.494;2023-02-28T03:22:40;3.78;;;2.60;;
16354;SDS011;8287;51.644;8.494;2023-02-28T03:25:20;5.50;;;2.20;;
16354;SDS011;8287;51.644;8.494;2023-02-28T03:27:53;4.70;;;2.33;;
16354;SDS011;8287;51.644;8.494;2023-02-28T03:30:27;2.72;;;2.00;;
16354;SDS011;8287;51.644;8.494;2023-02-28T03:33:00;1.98;;;1.70;;
16354;SDS011;8287;51.644;8.494;2023-02-28T03:35:34;3.15;;;1.90;;
16354;SDS011;8287;51.644;8.494;2023-02-28T03:38:06;3.15;;;2.10;;
16354;SDS011;8287;51.644;8.494;2023-02-28T03:40:39;2.92;;;2.28;;
16354;SDS011;8287;51.644;8.494;2023-02-28T03:43:13;2.70;;;1.77;;
16354;SDS011;8287;51.644;8.494;2023-02-28T03:45:44;2.88;;;2.08;;
16354;SDS011;8287;51.644;8.494;2023-02-28T03:48:15;2.78;;;1.63;;
16354;SDS011;8287;51.644;8.494;2023-02-28T03:50:47;3.30;;;1.98;;
16354;SDS011;8287;51.644;8.494;2023-02-28T03:53:18;2.28;;;2.08;;
16354;SDS011;8287;51.644;8.494;2023-02-28T03:55:48;3.88;;;2.10;;
16354;SDS011;8287;51.644;8.494;2023-02-28T03:58:20;2.78;;;2.17;;
16354;SDS011;8287;51.644;8.494;2023-02-28T04:00:52;2.42;;;2.22;;
16354;SDS011;8287;51.644;8.494;2023-02-28T04:03:25;2.70;;;2.40;;
16354;SDS011;8287;51.644;8.494;2023-02-28T04:05:53;2.75;;;2.50;;
16354;SDS011;8287;51.644;8.494;2023-02-28T04:08:21;2.22;;;2.03;;
16354;SDS011;8287;51.644;8.494;2023-02-28T04:10:50;4.35;;;2.67;;
16354;SDS011;8287;51.644;8.494;2023-02-28T04:13:22;3.80;;;2.25;;
16354;SDS011;8287;51.644;8.494;2023-02-28T04:15:49;5.32;;;2.50;;
16354;SDS011;8287;51.644;8.494;2023-02-28T04:18:16;7.97;;;4.25;;
16354;SDS011;8287;51.644;8.494;2023-02-28T04:20:42;5.82;;;3.75;;
16354;SDS011;8287;51.644;8.494;2023-02-28T04:23:10;6.95;;;4.30;;
16354;SDS011;8287;51.644;8.494;2023-02-28T04:25:37;11.50;;;5.10;;
16354;SDS011;8287;51.644;8.494;2023-02-28T04:28:05;4.93;;;3.72;;
16354;SDS011;8287;51.644;8.494;2023-02-28T04:30:32;6.30;;;4.32;;
16354;SDS011;8287;51.644;8.494;2023-02-28T04:32:59;4.47;;;3.58;;
16354;SDS011;8287;51.644;8.494;2023-02-28T04:35:27;5.20;;;4.15;;
16354;SDS011;8287;51.644;8.494;2023-02-28T04:37:53;5.35;;;4.07;;
16354;SDS011;8287;51.644;8.494;2023-02-28T04:40:21;5.75;;;3.50;;
16354;SDS011;8287;51.644;8.494;2023-02-28T04:42:48;3.88;;;3.10;;
16354;SDS011;8287;51.644;8.494;2023-02-28T04:45:15;5.07;;;2.90;;
16354;SDS011;8287;51.644;8.494;2023-02-28T04:47:42;3.25;;;2.38;;
16354;SDS011;8287;51.644;8.494;2023-02-28T04:50:09;4.35;;;2.38;;
16354;SDS011;8287;51.644;8.494;2023-02-28T04:52:36;3.45;;;2.60;;
16354;SDS011;8287;51.644;8.494;2023-02-28T04:55:03;2.45;;;2.00;;
16354;SDS011;8287;51.644;8.494;2023-02-28T04:57:31;3.63;;;2.45;;
16354;SDS011;8287;51.644;8.494;2023-02-28T04:59:58;3.22;;;2.35;;
16354;SDS011;8287;51.644;8.494;2023-02-28T05:02:25;3.15;;;2.70;;
16354;SDS011;8287;51.644;8.494;2023-02-28T05:04:52;3.22;;;2.30;;
16354;SDS011;8287;51.644;8.494;2023-02-28T05:07:18;6.18;;;2.83;;
16354;SDS011;8287;51.644;8.494;2023-02-28T05:09:45;3.28;;;2.35;;
16354;SDS011;8287;51.644;8.494;2023-02-28T05:12:11;3.42;;;2.05;;
16354;SDS011;8287;51.644;8.494;2023-02-28T05:14:39;5.05;;;2.70;;
16354;SDS011;8287;51.644;8.494;2023-02-28T05:17:06;4.90;;;2.55;;
16354;SDS011;8287;51.644;8.494;2023-02-28T05:19:32;3.78;;;2.33;;
16354;SDS011;8287;51.644;8.494;2023-02-28T05:21:59;2.80;;;1.90;;
16354;SDS011;8287;51.644;8.494;2023-02-28T05:24:26;3.00;;;2.03;;
16354;SDS011;8287;51.644;8.494;2023-02-28T05:26:53;4.45;;;2.42;;
16354;SDS011;8287;51.644;8.494;2023-02-28T05:29:20;3.75;;;2.50;;
16354;SDS011;8287;51.644;8.494;2023-02-28T05:31:48;2.78;;;2.05;;
16354;SDS011;8287;51.644;8.494;2023-02-28T05:34:15;4.65;;;2.72;;
16354;SDS011;8287;51.644;8.494;2023-02-28T05:36:42;5.30;;;3.20;;
16354;SDS011;8287;51.644;8.494;2023-02-28T05:39:09;4.82;;;3.08;;
16354;SDS011;8287;51.644;8.494;2023-02-28T05:41:38;5.55;;;3.65;;
16354;SDS011;8287;51.644;8.494;2023-02-28T05:44:07;5.97;;;3.40;;
16354;SDS011;8287;51.644;8.494;2023-02-28T05:46:34;5.20;;;3.35;;
16354;SDS011;8287;51.644;8.494;2023-02-28T05:49:02;5.85;;;3.13;;
16354;SDS011;8287;51.644;8.494;2023-02-28T05:51:29;3.58;;;2.92;;
16354;SDS011;8287;51.644;8.494;2023-02-28T05:53:58;4.72;;;3.60;;
16354;SDS011;8287;51.644;8.494;2023-02-28T05:56:26;7.30;;;3.45;;
16354;SDS011;8287;51.644;8.494;2023-02-28T05:58:52;6.63;;;4.03;;
16354;SDS011;8287;51.644;8.494;2023-02-28T06:01:20;7.22;;;4.13;;
16354;SDS011;8287;51.644;8.494;2023-02-28T06:03:57;6.18;;;4.00;;
16354;SDS011;8287;51.644;8.494;2023-02-28T06:06:25;8.20;;;4.10;;
16354;SDS011;8287;51.644;8.494;2023-02-28T06:08:52;8.77;;;3.97;;
16354;SDS011;8287;51.644;8.494;2023-02-28T06:11:19;10.05;;;6.60;;
16354;SDS011;8287;51.644;8.494;2023-02-28T06:13:46;20.02;;;13.25;;
16354;SDS011;8287;51.644;8.494;2023-02-28T06:16:12;12.15;;;9.15;;
16354;SDS011;8287;51.644;8.494;2023-02-28T06:18:39;9.88;;;7.70;;
16354;SDS011;8287;51.644;8.494;2023-02-28T06:21:05;8.27;;;5.28;;
16354;SDS011;8287;51.644;8.494;2023-02-28T06:23:35;8.10;;;5.65;;
16354;SDS011;8287;51.644;8.494;2023-02-28T06:26:02;6.22;;;4.15;;
16354;SDS011;8287;51.644;8.494;2023-02-28T06:28:29;6.05;;;3.85;;
16354;SDS011;8287;51.644;8.494;2023-02-28T06:30:55;6.40;;;4.18;;
16354;SDS011;8287;51.644;8.494;2023-02-28T06:33:22;6.55;;;3.55;;
16354;SDS011;8287;51.644;8.494;2023-02-28T06:35:49;5.97;;;4.07;;
16354;SDS011;8287;51.644;8.494;2023-02-28T06:38:16;5.57;;;3.72;;
16354;SDS011;8287;51.644;8.494;2023-02-28T06:40:48;9.85;;;4.65;;
16354;SDS011;8287;51.644;8.494;2023-02-28T06:43:20;7.22;;;4.43;;
16354;SDS011;8287;51.644;8.494;2023-02-28T06:45:46;9.95;;;4.82;;
16354;SDS011;8287;51.644;8.494;2023-02-28T06:48:13;14.20;;;5.50;;
16354;SDS011;8287;51.644;8.494;2023-02-28T06:50:39;10.30;;;6.05;;
16354;SDS011;8287;51.644;8.494;2023-02-28T06:53:06;10.15;;;6.50;;
16354;SDS011;8287;51.644;8.494;2023-02-28T06:55:33;11.70;;;7.07;;
16354;SDS011;8287;51.644;8.494;2023-02-28T06:58:01;13.43;;;7.85;;
16354;SDS011;8287;51.644;8.494;2023-02-28T07:00:27;12.13;;;8.40;;
16354;SDS011;8287;51.644;8.494;2023-02-28T07:02:54;16.50;;;9.82;;
16354;SDS011;8287;51.644;8.494;2023-02-28T07:05:21;13.90;;;9.20;;
16354;SDS011;8287;51.644;8.494;2023-02-28T07:07:47;17.08;;;10.40;;
16354;SDS011;8287;51.644;8.494;2023-02-28T07:10:14;13.20;;;10.52;;
16354;SDS011;8287;51.644;8.494;2023-02-28T07:12:42;13.95;;;9.80;;
16354;SDS011;8287;51.644;8.494;2023-02-28T07:15:11;15.00;;;8.90;;
16354;SDS011;8287;51.644;8.494;2023-02-28T07:17:37;8.45;;;6.82;;
16354;SDS011;8287;51.644;8.494;2023-02-28T07:20:04;10.75;;;7.38;;
16354;SDS011;8287;51.644;8.494;2023-02-28T07:22:32;8.57;;;6.70;;
16354;SDS011;8287;51.644;8.494;2023-02-28T07:24:59;7.72;;;5.80;;
16354;SDS011;8287;51.644;8.494;2023-02-28T07:27:25;12.68;;;7.47;;
16354;SDS011;8287;51.644;8.494;2023-02-28T07:29:52;18.90;;;12.10;;
16354;SDS011;8287;51.644;8.494;2023-02-28T07:32:21;15.40;;;10.45;;
16354;SDS011;8287;51.644;8.494;2023-02-28T07:34:49;12.80;;;9.02;;
16354;SDS011;8287;51.644;8.494;2023-02-28T07:37:15;10.57;;;7.88;;
16354;SDS011;8287;51.644;8.494;2023-02-28T07:39:42;8.43;;;5.78;;
16354;SDS011;8287;51.644;8.494;2023-02-28T07:42:08;5.78;;;5.18;;
16354;SDS011;8287;51.644;8.494;2023-02-28T07:44:37;5.85;;;4.53;;
16354;SDS011;8287;51.644;8.494;2023-02-28T07:47:05;7.72;;;5.05;;
16354;SDS011;8287;51.644;8.494;2023-02-28T07:49:34;6.43;;;4.60;;
16354;SDS011;8287;51.644;8.494;2023-02-28T07:52:01;7.35;;;3.70;;
16354;SDS011;8287;51.644;8.494;2023-02-28T07:54:28;7.10;;;3.70;;
16354;SDS011;8287;51.644;8.494;2023-02-28T07:56:55;3.97;;;3.10;;
16354;SDS011;8287;51.644;8.494;2023-02-28T07:59:22;5.90;;;4.13;;
16354;SDS011;8287;51.644;8.494;2023-02-28T08:01:48;4.68;;;3.70;;
16354;SDS011;8287;51.644;8.494;2023-02-28T08:04:15;5.40;;;3.58;;
16354;SDS011;8287;51.644;8.494;2023-02-28T08:06:43;4.55;;;3.30;;
16354;SDS011;8287;51.644;8.494;2023-02-28T08:09:10;4.22;;;3.58;;
16354;SDS011;8287;51.644;8.494;2023-02-28T08:11:36;4.15;;;3.47;;
16354;SDS011;8287;51.644;8.494;2023-02-28T08:14:03;4.32;;;3.60;;
16354;SDS011;8287;51.644;8.494;2023-02-28T08:16:30;7.22;;;5.22;;
16354;SDS011;8287;51.644;8.494;2023-02-28T08:18:56;10.95;;;5.78;;
16354;SDS011;8287;51.644;8.494;2023-02-28T08:21:23;6.18;;;4.15;;
16354;SDS011;8287;51.644;8.494;2023-02-28T08:23:51;7.60;;;4.43;;
16354;SDS011;8287;51.644;8.494;2023-02-28T08:26:18;4.82;;;4.05;;
16354;SDS011;8287;51.644;8.494;2023-02-28T08:28:45;5.43;;;3.95;;
16354;SDS011;8287;51.644;8.494;2023-02-28T08:31:12;6.07;;;4.45;;
16354;SDS011;8287;51.644;8.494;2023-02-28T08:33:40;8.00;;;4.18;;
16354;SDS011;8287;51.644;8.494;2023-02-28T08:36:08;7.75;;;3.70;;
16354;SDS011;8287;51.644;8.494;2023-02-28T08:38:35;5.97;;;3.70;;
16354;SDS011;8287;51.644;8.494;2023-02-28T08:41:04;6.00;;;3.85;;
16354;SDS011;8287;51.644;8.494;2023-02-28T08:43:32;8.02;;;3.58;;
16354;SDS011;8287;51.644;8.494;2023-02-28T08:45:59;4.15;;;3.75;;
16354;SDS011;8287;51.644;8.494;2023-02-28T08:48:26;6.07;;;3.70;;
16354;SDS011;8287;51.644;8.494;2023-02-28T08:50:54;4.80;;;3.75;;
16354;SDS011;8287;51.644;8.494;2023-02-28T08:53:22;5.60;;;3.83;;
16354;SDS011;8287;51.644;8.494;2023-02-28T08:55:55;5.47;;;3.15;;
16354;SDS011;8287;51.644;8.494;2023-02-28T08:58:23;22.20;;;5.03;;
16354;SDS011;8287;51.644;8.494;2023-02-28T09:00:50;32.10;;;5.40;;
16354;SDS011;8287;51.644;8.494;2023-02-28T09:03:17;16.80;;;5.00;;
16354;SDS011;8287;51.644;8.494;2023-02-28T09:05:51;7.43;;;4.85;;
16354;SDS011;8287;51.644;8.494;2023-02-28T09:08:18;12.43;;;5.35;;
16354;SDS011;8287;51.644;8.494;2023-02-28T09:10:45;7.78;;;4.88;;
16354;SDS011;8287;51.644;8.494;2023-02-28T09:13:12;15.88;;;6.22;;
16354;SDS011;8287;51.644;8.494;2023-02-28T09:15:40;20.75;;;8.40;;
16354;SDS011;8287;51.644;8.494;2023-02-28T09:18:07;22.00;;;7.95;;
16354;SDS011;8287;51.644;8.494;2023-02-28T09:20:33;27.63;;;9.07;;
16354;SDS011;8287;51.644;8.494;2023-02-28T09:23:03;11.60;;;5.32;;
16354;SDS011;8287;51.644;8.494;2023-02-28T09:25:30;6.32;;;4.03;;
16354;SDS011;8287;51.644;8.494;2023-02-28T09:27:57;6.28;;;4.55;;
16354;SDS011;8287;51.644;8.494;2023-02-28T09:30:23;14.60;;;5.80;;
16354;SDS011;8287;51.644;8.494;2023-02-28T09:32:51;10.27;;;5.60;;
16354;SDS011;8287;51.644;8.494;2023-02-28T09:35:18;7.75;;;4.30;;
16354;SDS011;8287;51.644;8.494;2023-02-28T09:37:46;4.07;;;3.67;;
16354;SDS011;8287;51.644;8.494;2023-02-28T09:40:12;7.47;;;4.88;;
16354;SDS011;8287;51.644;8.494;2023-02-28T09:42:42;2.40;;;2.20;;
16354;SDS011;8287;51.644;8.494;2023-02-28T09:45:13;3.33;;;2.72;;
16354;SDS011;8287;51.644;8.494;2023-02-28T09:47:46;6.25;;;2.38;;
16354;SDS011;8287;51.644;8.494;2023-02-28T09:50:19;1.80;;;1.65;;
16354;SDS011;8287;51.644;8.494;2023-02-28T09:52:54;4.32;;;2.40;;
16354;SDS011;8287;51.644;8.494;2023-02-28T09:55:24;2.80;;;2.17;;
16354;SDS011;8287;51.644;8.494;2023-02-28T09:57:56;5.13;;;2.42;;
16354;SDS011;8287;51.644;8.494;2023-02-28T10:00:27;3.33;;;2.38;;
16354;SDS011;8287;51.644;8.494;2023-02-28T10:03:02;3.35;;;2.17;;
16354;SDS011;8287;51.644;8.494;2023-02-28T10:05:34;3.45;;;2.35;;
16354;SDS011;8287;51.644;8.494;2023-02-28T10:08:06;2.42;;;2.15;;
16354;SDS011;8287;51.644;8.494;2023-02-28T10:10:39;3.75;;;2.45;;
16354;SDS011;8287;51.644;8.494;2023-02-28T10:13:12;2.50;;;2.30;;
16354;SDS011;8287;51.644;8.494;2023-02-28T10:15:41;2.78;;;2.40;;
16354;SDS011;8287;51.644;8.494;2023-02-28T10:18:12;2.22;;;2.00;;
16354;SDS011;8287;51.644;8.494;2023-02-28T10:20:44;3.65;;;2.20;;
16354;SDS011;8287;51.644;8.494;2023-02-28T10:23:13;3.63;;;2.75;;
16354;SDS011;8287;51.644;8.494;2023-02-28T10:25:44;4.45;;;2.28;;
16354;SDS011;8287;51.644;8.494;2023-02-28T10:28:15;5.65;;;2.40;;
16354;SDS011;8287;51.644;8.494;2023-02-28T10:30:44;3.55;;;2.35;;
16354;SDS011;8287;51.644;8.494;2023-02-28T10:33:21;3.67;;;2.38;;
16354;SDS011;8287;51.644;8.494;2023-02-28T10:35:51;6.03;;;2.60;;
16354;SDS011;8287;51.644;8.494;2023-02-28T10:38:19;4.05;;;2.05;;
16354;SDS011;8287;51.644;8.494;2023-02-28T10:40:48;2.67;;;2.28;;
16354;SDS011;8287;51.644;8.494;2023-02-28T10:43:20;3.25;;;2.20;;
16354;SDS011;8287;51.644;8.494;2023-02-28T10:45:53;4.00;;;2.47;;
16354;SDS011;8287;51.644;8.494;2023-02-28T10:48:27;5.15;;;2.08;;
16354;SDS011;8287;51.644;8.494;2023-02-28T10:50:58;3.30;;;2.13;;
16354;SDS011;8287;51.644;8.494;2023-02-28T10:53:33;3.25;;;2.35;;
16354;SDS011;8287;51.644;8.494;2023-02-28T10:56:05;3.65;;;2.20;;
16354;SDS011;8287;51.644;8.494;2023-02-28T10:58:47;3.97;;;2.15;;
16354;SDS011;8287;51.644;8.494;2023-02-28T11:01:16;2.88;;;2.08;;
16354;SDS011;8287;51.644;8.494;2023-02-28T11:03:44;3.08;;;2.40;;
16354;SDS011;8287;51.644;8.494;2023-02-28T11:06:22;2.30;;;2.10;;
16354;SDS011;8287;51.644;8.494;2023-02-28T11:08:52;2.53;;;2.00;;
16354;SDS011;8287;51.644;8.494;2023-02-28T11:11:20;3.75;;;2.03;;
16354;SDS011;8287;51.644;8.494;2023-02-28T11:13:51;3.47;;;2.20;;
16354;SDS011;8287;51.644;8.494;2023-02-28T11:16:19;4.30;;;3.85;;
16354;SDS011;8287;51.644;8.494;2023-02-28T11:18:48;3.45;;;2.40;;
16354;SDS011;8287;51.644;8.494;2023-02-28T11:21:16;4.68;;;2.70;;
16354;SDS011;8287;51.644;8.494;2023-02-28T11:23:48;2.97;;;2.47;;
16354;SDS011;8287;51.644;8.494;2023-02-28T11:26:36;4.07;;;2.42;;
16354;SDS011;8287;51.644;8.494;2023-02-28T11:29:19;2.50;;;2.10;;
16354;SDS011;8287;51.644;8.494;2023-02-28T11:32:03;2.58;;;1.77;;
16354;SDS011;8287;51.644;8.494;2023-02-28T11:34:38;4.25;;;2.20;;
16354;SDS011;8287;51.644;8.494;2023-02-28T11:37:09;2.70;;;1.88;;
16354;SDS011;8287;51.644;8.494;2023-02-28T11:39:40;4.95;;;2.00;;
16354;SDS011;8287;51.644;8.494;2023-02-28T11:42:11;2.00;;;1.77;;
16354;SDS011;8287;51.644;8.494;2023-02-28T11:44:55;2.22;;;2.05;;
16354;SDS011;8287;51.644;8.494;2023-02-28T11:47:31;2.30;;;2.10;;
16354;SDS011;8287;51.644;8.494;2023-02-28T11:50:10;2.38;;;2.08;;
16354;SDS011;8287;51.644;8.494;2023-02-28T11:52:48;4.40;;;2.33;;
16354;SDS011;8287;51.644;8.494;2023-02-28T11:55:20;3.30;;;2.30;;
16354;SDS011;8287;51.644;8.494;2023-02-28T12:01:09;2.58;;;2.05;;
16354;SDS011;8287;51.644;8.494;2023-02-28T12:03:49;5.72;;;2.05;;
16354;SDS011;8287;51.644;8.494;2023-02-28T12:06:30;2.33;;;2.10;;
16354;SDS011;8287;51.644;8.494;2023-02-28T12:09:04;2.30;;;2.08;;
16354;SDS011;8287;51.644;8.494;2023-02-28T12:11:48;2.85;;;2.58;;
16354;SDS011;8287;51.644;8.494;2023-02-28T12:14:22;3.80;;;1.80;;
16354;SDS011;8287;51.644;8.494;2023-02-28T12:17:04;2.83;;;2.20;;
16354;SDS011;8287;51.644;8.494;2023-02-28T12:19:42;2.90;;;2.10;;
16354;SDS011;8287;51.644;8.494;2023-02-28T12:22:21;2.45;;;1.90;;
16354;SDS011;8287;51.644;8.494;2023-02-28T12:25:00;3.65;;;2.38;;
16354;SDS011;8287;51.644;8.494;2023-02-28T12:27:45;2.13;;;1.92;;
16354;SDS011;8287;51.644;8.494;2023-02-28T12:30:14;6.43;;;2.00;;
16354;SDS011;8287;51.644;8.494;2023-02-28T12:32:46;2.15;;;1.80;;
16354;SDS011;8287;51.644;8.494;2023-02-28T12:35:18;3.17;;;2.28;;
16354;SDS011;8287;51.644;8.494;2023-02-28T12:37:49;2.75;;;2.00;;
16354;SDS011;8287;51.644;8.494;2023-02-28T12:40:22;2.70;;;1.98;;
16354;SDS011;8287;51.644;8.494;2023-02-28T12:42:54;3.72;;;2.25;;
16354;SDS011;8287;51.644;8.494;2023-02-28T12:45:25;3.30;;;1.77;;
16354;SDS011;8287;51.644;8.494;2023-02-28T12:48:00;2.78;;;2.53;;
16354;SDS011;8287;51.644;8.494;2023-02-28T12:50:28;2.20;;;2.00;;
16354;SDS011;8287;51.644;8.494;2023-02-28T12:52:58;2.20;;;2.00;;
16354;SDS011;8287;51.644;8.494;2023-02-28T12:55:30;1.90;;;1.77;;
16354;SDS011;8287;51.644;8.494;2023-02-28T12:58:08;2.42;;;2.22;;
16354;SDS011;8287;51.644;8.494;2023-02-28T13:00:44;5.80;;;2.15;;
16354;SDS011;8287;51.644;8.494;2023-02-28T13:06:28;2.28;;;2.10;;
16354;SDS011;8287;51.644;8.494;2023-02-28T13:09:08;2.30;;;2.10;;
16354;SDS011;8287;51.644;8.494;2023-02-28T13:11:39;3.80;;;2.53;;
16354;SDS011;8287;51.644;8.494;2023-02-28T13:14:24;5.45;;;3.10;;
16354;SDS011;8287;51.644;8.494;2023-02-28T13:16:56;4.07;;;2.47;;
16354;SDS011;8287;51.644;8.494;2023-02-28T13:19:26;2.10;;;1.90;;
16354;SDS011;8287;51.644;8.494;2023-02-28T13:21:55;4.18;;;2.03;;
16354;SDS011;8287;51.644;8.494;2023-02-28T13:24:36;2.40;;;2.20;;
16354;SDS011;8287;51.644;8.494;2023-02-28T13:33:22;6.60;;;3.70;;
16354;SDS011;8287;51.644;8.494;2023-02-28T13:36:01;4.45;;;2.80;;
16354;SDS011;8287;51.644;8.494;2023-02-28T13:38:35;3.25;;;2.33;;
16354;SDS011;8287;51.644;8.494;2023-02-28T13:44:11;2.67;;;2.13;;
16354;SDS011;8287;51.644;8.494;2023-02-28T13:49:39;2.60;;;2.40;;
16354;SDS011;8287;51.644;8.494;2023-02-28T13:52:07;6.53;;;2.28;;
16354;SDS011;8287;51.644;8.494;2023-02-28T13:54:44;2.33;;;1.90;;
16354;SDS011;8287;51.644;8.494;2023-02-28T13:57:25;2.90;;;2.03;;
16354;SDS011;8287;51.644;8.494;2023-02-28T14:00:05;2.40;;;1.98;;
16354;SDS011;8287;51.644;8.494;2023-02-28T14:02:48;2.80;;;1.98;;
16354;SDS011;8287;51.644;8.494;2023-02-28T14:05:34;2.58;;;2.38;;
16354;SDS011;8287;51.644;8.494;2023-02-28T14:08:04;3.80;;;3.10;;
16354;SDS011;8287;51.644;8.494;2023-02-28T14:10:41;4.28;;;2.20;;
16354;SDS011;8287;51.644;8.494;2023-02-28T14:13:12;2.15;;;1.90;;
16354;SDS011;8287;51.644;8.494;2023-02-28T14:16:02;2.85;;;2.20;;
16354;SDS011;8287;51.644;8.494;2023-02-28T14:18:32;5.30;;;2.20;;
16354;SDS011;8287;51.644;8.494;2023-02-28T14:21:10;5.00;;;2.30;;
16354;SDS011;8287;51.644;8.494;2023-02-28T14:23:50;2.40;;;1.75;;
16354;SDS011;8287;51.644;8.494;2023-02-28T14:26:51;2.63;;;2.30;;
16354;SDS011;8287;51.644;8.494;2023-02-28T14:29:30;2.38;;;2.00;;
16354;SDS011;8287;51.644;8.494;2023-02-28T14:32:13;2.42;;;1.92;;
16354;SDS011;8287;51.644;8.494;2023-02-28T14:34:49;2.47;;;2.28;;
16354;SDS011;8287;51.644;8.494;2023-02-28T14:37:25;3.20;;;2.08;;
16354;SDS011;8287;51.644;8.494;2023-02-28T14:39:55;3.08;;;2.35;;
16354;SDS011;8287;51.644;8.494;2023-02-28T14:42:29;3.03;;;2.47;;
16354;SDS011;8287;51.644;8.494;2023-02-28T14:44:58;2.17;;;1.75;;
16354;SDS011;8287;51.644;8.494;2023-02-28T14:47:26;2.47;;;2.15;;
16354;SDS011;8287;51.644;8.494;2023-02-28T14:49:54;3.38;;;2.15;;
16354;SDS011;8287;51.644;8.494;2023-02-28T14:52:22;2.47;;;2.05;;
16354;SDS011;8287;51.644;8.494;2023-02-28T14:54:52;2.53;;;2.33;;
16354;SDS011;8287;51.644;8.494;2023-02-28T14:57:21;2.53;;;2.33;;
16354;SDS011;8287;51.644;8.494;2023-02-28T14:59:56;2.58;;;2.35;;
16354;SDS011;8287;51.644;8.494;2023-02-28T15:02:25;3.67;;;2.15;;
16354;SDS011;8287;51.644;8.494;2023-02-28T15:04:56;2.35;;;2.15;;
16354;SDS011;8287;51.644;8.494;2023-02-28T15:07:26;2.17;;;1.98;;
16354;SDS011;8287;51.644;8.494;2023-02-28T15:10:20;2.50;;;2.28;;
16354;SDS011;8287;51.644;8.494;2023-02-28T15:12:51;2.55;;;2.20;;
16354;SDS011;8287;51.644;8.494;2023-02-28T15:15:21;2.65;;;2.35;;
16354;SDS011;8287;51.644;8.494;2023-02-28T15:17:52;2.75;;;2.10;;
16354;SDS011;8287;51.644;8.494;2023-02-28T15:20:22;3.05;;;2.40;;
16354;SDS011;8287;51.644;8.494;2023-02-28T15:22:51;2.63;;;2.40;;
16354;SDS011;8287;51.644;8.494;2023-02-28T15:25:21;2.65;;;2.45;;
16354;SDS011;8287;51.644;8.494;2023-02-28T15:27:49;3.25;;;2.35;;
16354;SDS011;8287;51.644;8.494;2023-02-28T15:30:20;5.55;;;1.90;;
16354;SDS011;8287;51.644;8.494;2023-02-28T15:33:15;3.35;;;2.47;;
16354;SDS011;8287;51.644;8.494;2023-02-28T15:35:46;3.13;;;2.20;;
16354;SDS011;8287;51.644;8.494;2023-02-28T15:38:16;2.40;;;2.10;;
16354;SDS011;8287;51.644;8.494;2023-02-28T15:40:50;3.22;;;2.80;;
16354;SDS011;8287;51.644;8.494;2023-02-28T15:43:23;3.88;;;2.60;;
16354;SDS011;8287;51.644;8.494;2023-02-28T15:45:51;2.90;;;2.53;;